createdAt,value
2018-09-27T00:01:59.337Z,100866.28
2018-09-27T00:04:28.239Z,100865.97
2018-09-27T00:06:56.954Z,100865.97
2018-09-27T00:09:25.618Z,100863.17
2018-09-27T00:11:54.350Z,100863.97
2018-09-27T00:14:23.175Z,100862.84
2018-09-27T00:16:51.956Z,100863.36
2018-09-27T00:19:20.657Z,100861.69
2018-09-27T00:21:49.986Z,100859.21
2018-09-27T00:24:18.728Z,100853.16
2018-09-27T00:26:47.452Z,100852.55
2018-09-27T00:29:16.694Z,100849.72
2018-09-27T00:31:45.368Z,100854.52
2018-09-27T00:34:14.170Z,100859.61
2018-09-27T00:36:42.891Z,100851.41
2018-09-27T00:39:12.938Z,100850.77
2018-09-27T00:41:41.640Z,100847.96
2018-09-27T00:44:10.424Z,100843.30
2018-09-27T00:46:39.099Z,100842.05
2018-09-27T00:49:07.883Z,100844.11
2018-09-27T00:51:36.630Z,100851.29
2018-09-27T00:54:06.051Z,100849.00
2018-09-27T00:56:34.879Z,100846.20
2018-09-27T00:59:03.572Z,100843.70
2018-09-27T01:01:32.258Z,100835.78
2018-09-27T01:04:00.965Z,100833.30
2018-09-27T01:06:29.981Z,100833.49
2018-09-27T01:08:58.655Z,100830.47
2018-09-27T01:11:27.387Z,100834.42
2018-09-27T01:13:56.055Z,100837.33
2018-09-27T01:16:24.802Z,100833.50
2018-09-27T01:18:53.472Z,100834.01
2018-09-27T01:21:22.281Z,100830.14
2018-09-27T01:23:51.000Z,100833.91
2018-09-27T01:26:19.758Z,100831.41
2018-09-27T01:28:48.419Z,100829.73
2018-09-27T01:31:17.299Z,100828.89
2018-09-27T01:33:45.977Z,100821.84
2018-09-27T01:36:14.691Z,100831.50
2018-09-27T01:38:43.363Z,100829.53
2018-09-27T01:41:12.157Z,100831.41
2018-09-27T01:43:40.887Z,100828.38
2018-09-27T01:46:09.862Z,100825.86
2018-09-27T01:48:39.378Z,100835.33
2018-09-27T01:51:08.135Z,100827.13
2018-09-27T01:53:39.028Z,100825.45
2018-09-27T01:56:07.726Z,100823.80
2018-09-27T01:58:36.407Z,100819.75
2018-09-27T02:01:05.125Z,100812.67
2018-09-27T02:03:33.984Z,100815.56
2018-09-27T02:06:03.159Z,100813.92
2018-09-27T02:08:31.902Z,100804.66
2018-09-27T02:11:00.754Z,100802.98
2018-09-27T02:13:30.265Z,100801.02
2018-09-27T02:15:58.973Z,100795.62
2018-09-27T02:18:27.714Z,100795.62
2018-09-27T02:20:56.489Z,100785.84
2018-09-27T02:23:25.190Z,100789.56
2018-09-27T02:25:53.920Z,100789.56
2018-09-27T02:28:22.764Z,100788.12
2018-09-27T02:30:51.471Z,100790.50
2018-09-27T02:33:20.373Z,100783.45
2018-09-27T02:35:49.083Z,100778.23
2018-09-27T02:38:19.136Z,100777.92
2018-09-27T02:40:47.942Z,100783.33
2018-09-27T02:43:16.751Z,100780.30
2018-09-27T02:45:45.555Z,100777.92
2018-09-27T02:48:14.600Z,100773.87
2018-09-27T02:50:43.608Z,100767.43
2018-09-27T02:53:12.960Z,100768.78
2018-09-27T02:55:41.755Z,100767.75
2018-09-27T02:58:10.442Z,100763.19
2018-09-27T03:00:39.160Z,100761.00
2018-09-27T03:03:08.244Z,100756.11
2018-09-27T03:05:37.013Z,100763.38
2018-09-27T03:08:06.148Z,100763.06
2018-09-27T03:10:34.835Z,100768.14
2018-09-27T03:13:03.666Z,100768.69
2018-09-27T03:15:32.364Z,100761.38
2018-09-27T03:18:01.368Z,100766.17
2018-09-27T03:20:30.460Z,100764.50
2018-09-27T03:22:59.246Z,100764.50
2018-09-27T03:25:28.091Z,100772.09
2018-09-27T03:27:56.778Z,100762.86
2018-09-27T03:30:25.557Z,100765.76
2018-09-27T03:38:03.139Z,100764.59
2018-09-27T03:40:31.844Z,100762.95
2018-09-27T03:43:01.131Z,100762.13
2018-09-27T03:45:29.885Z,100754.20
2018-09-27T03:47:58.968Z,100751.19
2018-09-27T03:50:28.047Z,100755.23
2018-09-27T03:52:56.940Z,100745.49
2018-09-27T03:55:25.679Z,100742.79
2018-09-27T03:57:54.520Z,100745.49
2018-09-27T04:00:23.204Z,100744.43
2018-09-27T04:02:52.161Z,100737.39
2018-09-27T04:05:21.304Z,100739.03
2018-09-27T04:07:50.288Z,100739.03
2018-09-27T04:10:19.347Z,100736.04
2018-09-27T04:12:48.390Z,100737.39
2018-09-27T04:15:17.046Z,100735.52
2018-09-27T04:17:46.022Z,100737.68
2018-09-27T04:20:14.864Z,100738.73
2018-09-27T04:22:44.691Z,100740.09
2018-09-27T04:25:13.414Z,100738.42
2018-09-27T04:27:42.301Z,100747.03
2018-09-27T04:30:11.184Z,100744.84
2018-09-27T04:32:40.222Z,100750.25
2018-09-27T04:35:08.902Z,100750.77
2018-09-27T04:37:37.982Z,100752.66
2018-09-27T04:40:07.370Z,100755.87
2018-09-27T04:42:36.141Z,100753.37
2018-09-27T04:45:05.427Z,100750.86
2018-09-27T04:47:34.397Z,100745.45
2018-09-27T04:50:03.133Z,100744.01
2018-09-27T04:52:31.961Z,100750.44
2018-09-27T04:55:00.623Z,100744.72
2018-09-27T04:57:29.829Z,100754.17
2018-09-27T04:59:59.002Z,100750.62
2018-09-27T05:02:28.173Z,100743.04
2018-09-27T05:04:56.928Z,100745.42
2018-09-27T05:07:25.935Z,100748.13
2018-09-27T05:09:55.030Z,100748.13
2018-09-27T05:12:24.700Z,100754.55
2018-09-27T05:14:54.158Z,100757.90
2018-09-27T05:17:23.626Z,100759.05
2018-09-27T05:19:52.383Z,100756.16
2018-09-27T05:22:21.470Z,100753.56
2018-09-27T05:24:50.445Z,100750.99
2018-09-27T05:27:19.246Z,100756.48
2018-09-27T05:29:48.208Z,100756.59
2018-09-27T05:32:17.292Z,100758.91
2018-09-27T05:34:46.126Z,100754.44
2018-09-27T05:37:14.848Z,100758.07
2018-09-27T05:39:43.659Z,100758.39
2018-09-27T05:42:13.551Z,100753.92
2018-09-27T05:44:42.545Z,100751.64
2018-09-27T05:47:11.773Z,100756.75
2018-09-27T05:49:40.478Z,100752.56
2018-09-27T05:52:09.488Z,100759.77
2018-09-27T05:54:38.202Z,100768.30
2018-09-27T05:57:06.977Z,100760.70
2018-09-27T05:59:35.714Z,100761.52
2018-09-27T06:02:04.472Z,100759.97
2018-09-27T06:04:33.709Z,100759.24
2018-09-27T06:07:02.462Z,100763.39
2018-09-27T06:09:31.191Z,100764.64
2018-09-27T06:12:00.041Z,100766.41
2018-09-27T06:14:28.842Z,100771.19
2018-09-27T06:16:57.609Z,100775.66
2018-09-27T06:19:26.592Z,100777.94
2018-09-27T06:21:55.516Z,100783.15
2018-09-27T06:24:24.346Z,100778.34
2018-09-27T06:26:53.029Z,100778.98
2018-09-27T06:29:21.754Z,100782.20
2018-09-27T06:31:50.457Z,100781.98
2018-09-27T06:34:19.194Z,100790.41
2018-09-27T06:36:48.057Z,100793.95
2018-09-27T06:39:16.840Z,100794.05
2018-09-27T06:41:45.597Z,100799.78
2018-09-27T06:44:14.346Z,100796.03
2018-09-27T06:46:43.413Z,100798.31
2018-09-27T06:49:13.519Z,100801.34
2018-09-27T06:51:42.252Z,100802.03
2018-09-27T06:54:10.927Z,100798.61
2018-09-27T06:56:39.664Z,100798.50
2018-09-27T06:59:09.011Z,100797.98
2018-09-27T07:01:37.865Z,100794.33
2018-09-27T07:04:06.628Z,100798.71
2018-09-27T07:06:36.145Z,100798.28
2018-09-27T07:09:07.249Z,100800.05
2018-09-27T07:11:36.050Z,100802.31
2018-09-27T07:14:04.912Z,100807.65
2018-09-27T07:16:33.705Z,100806.91
2018-09-27T07:19:02.555Z,100806.50
2018-09-27T07:21:31.467Z,100798.38
2018-09-27T07:24:00.688Z,100796.59
2018-09-27T07:26:29.681Z,100793.77
2018-09-27T07:28:58.839Z,100795.01
2018-09-27T07:31:27.721Z,100801.11
2018-09-27T07:33:56.469Z,100798.80
2018-09-27T07:36:25.258Z,100795.45
2018-09-27T07:38:54.218Z,100797.02
2018-09-27T07:41:22.958Z,100792.91
2018-09-27T07:43:51.738Z,100796.33
2018-09-27T07:46:20.522Z,100794.34
2018-09-27T07:48:49.917Z,100794.81
2018-09-27T07:51:18.858Z,100795.02
2018-09-27T07:53:47.685Z,100796.55
2018-09-27T07:56:16.518Z,100798.07
2018-09-27T07:58:45.690Z,100801.57
2018-09-27T08:01:14.495Z,100805.18
2018-09-27T08:03:43.321Z,100798.81
2018-09-27T08:06:12.150Z,100803.12
2018-09-27T08:08:41.156Z,100811.69
2018-09-27T08:11:10.707Z,100812.33
2018-09-27T08:13:40.549Z,100811.78
2018-09-27T08:16:09.467Z,100817.73
2018-09-27T08:18:39.109Z,100818.22
2018-09-27T08:21:08.881Z,100811.30
2018-09-27T08:23:37.848Z,100808.72
2018-09-27T08:26:06.857Z,100810.56
2018-09-27T08:28:35.576Z,100810.48
2018-09-27T08:31:04.654Z,100808.00
2018-09-27T08:33:33.487Z,100806.87
2018-09-27T08:36:02.266Z,100807.11
2018-09-27T08:38:31.025Z,100801.91
2018-09-27T08:41:00.147Z,100796.70
2018-09-27T08:43:29.008Z,100794.27
2018-09-27T08:45:58.266Z,100799.21
2018-09-27T08:48:28.100Z,100798.66
2018-09-27T08:50:57.261Z,100788.05
2018-09-27T08:53:27.234Z,100787.89
2018-09-27T08:55:56.481Z,100782.80
2018-09-27T08:58:25.432Z,100777.67
2018-09-27T09:00:54.809Z,100775.51
2018-09-27T09:03:23.901Z,100771.70
2018-09-27T09:05:53.299Z,100773.83
2018-09-27T09:08:22.869Z,100777.05
2018-09-27T09:10:52.256Z,100772.65
2018-09-27T09:13:21.302Z,100769.63
2018-09-27T09:15:50.679Z,100780.22
2018-09-27T09:18:19.709Z,100775.25
2018-09-27T09:20:48.760Z,100768.43
2018-09-27T09:23:17.708Z,100770.88
2018-09-27T09:25:47.132Z,100773.59
2018-09-27T09:28:16.194Z,100765.61
2018-09-27T09:30:45.373Z,100766.94
2018-09-27T09:33:14.364Z,100769.89
2018-09-27T09:35:43.654Z,100764.36
2018-09-27T09:38:12.916Z,100764.62
2018-09-27T09:40:43.374Z,100762.37
2018-09-27T09:43:12.563Z,100754.12
2018-09-27T09:45:41.679Z,100757.62
2018-09-27T09:48:10.741Z,100744.73
2018-09-27T09:50:39.986Z,100751.20
2018-09-27T09:53:09.011Z,100748.95
2018-09-27T09:55:38.291Z,100741.59
2018-09-27T09:58:07.620Z,100748.08
2018-09-27T10:00:38.019Z,100737.94
2018-09-27T10:03:08.612Z,100739.50
2018-09-27T10:05:37.871Z,100735.30
2018-09-27T10:08:06.910Z,100734.70
2018-09-27T10:10:37.260Z,100737.89
2018-09-27T10:13:07.003Z,100736.39
2018-09-27T10:15:36.152Z,100727.74
2018-09-27T10:18:05.454Z,100725.14
2018-09-27T10:20:34.471Z,100721.66
2018-09-27T10:23:03.623Z,100723.44
2018-09-27T10:25:32.939Z,100721.31
2018-09-27T10:28:02.090Z,100719.49
2018-09-27T10:30:31.359Z,100714.36
2018-09-27T10:33:00.281Z,100708.69
2018-09-27T10:35:29.533Z,100710.41
2018-09-27T10:37:58.581Z,100706.34
2018-09-27T10:40:28.547Z,100711.59
2018-09-27T10:42:58.023Z,100705.64
2018-09-27T10:45:27.097Z,100700.48
2018-09-27T10:47:56.777Z,100706.59
2018-09-27T10:50:26.771Z,100695.66
2018-09-27T10:52:56.022Z,100692.13
2018-09-27T10:55:25.123Z,100688.05
2018-09-27T10:57:54.631Z,100687.80
2018-09-27T11:00:24.283Z,100684.23
2018-09-27T11:02:53.782Z,100677.94
2018-09-27T11:05:22.866Z,100677.16
2018-09-27T11:07:52.569Z,100667.53
2018-09-27T11:10:21.796Z,100665.31
2018-09-27T11:12:50.967Z,100666.41
2018-09-27T11:15:21.195Z,100664.47
2018-09-27T11:17:50.384Z,100661.14
2018-09-27T11:20:20.282Z,100661.41
2018-09-27T11:22:49.378Z,100659.78
2018-09-27T11:25:18.469Z,100653.73
2018-09-27T11:27:48.355Z,100648.49
2018-09-27T11:30:22.533Z,100644.63
2018-09-27T11:32:51.740Z,100644.60
2018-09-27T11:35:20.969Z,100642.07
2018-09-27T11:37:50.128Z,100638.21
2018-09-27T11:40:20.473Z,100632.94
2018-09-27T11:42:50.398Z,100635.68
2018-09-27T11:45:19.697Z,100625.45
2018-09-27T11:47:49.140Z,100630.34
2018-09-27T11:50:18.256Z,100623.13
2018-09-27T11:52:47.679Z,100619.74
2018-09-27T11:55:17.254Z,100612.56
2018-09-27T11:57:46.594Z,100600.69
2018-09-27T12:00:16.075Z,100599.31
2018-09-27T12:02:45.807Z,100597.11
2018-09-27T12:05:14.921Z,100595.73
2018-09-27T12:07:44.942Z,100596.78
2018-09-27T12:10:14.026Z,100586.55
2018-09-27T12:12:43.431Z,100583.77
2018-09-27T12:15:14.043Z,100581.50
2018-09-27T12:17:43.164Z,100576.75
2018-09-27T12:20:12.666Z,100574.20
2018-09-27T12:22:41.910Z,100569.95
2018-09-27T12:25:11.198Z,100561.04
2018-09-27T12:27:40.491Z,100558.44
2018-09-27T12:30:13.135Z,100552.83
2018-09-27T12:32:42.247Z,100550.27
2018-09-27T12:35:12.187Z,100549.34
2018-09-27T12:37:41.618Z,100543.41
2018-09-27T12:40:10.880Z,100542.48
2018-09-27T12:42:40.150Z,100538.52
2018-09-27T12:45:09.594Z,100540.09
2018-09-27T12:47:39.282Z,100536.11
2018-09-27T12:50:09.395Z,100528.56
2018-09-27T12:52:38.653Z,100528.50
2018-09-27T12:55:08.280Z,100520.39
2018-09-27T12:57:37.533Z,100517.56
2018-09-27T13:00:06.729Z,100517.83
2018-09-27T13:02:36.091Z,100516.11
2018-09-27T13:05:05.627Z,100515.19
2018-09-27T13:07:34.871Z,100510.70
2018-09-27T13:10:04.202Z,100508.96
2018-09-27T13:12:34.372Z,100498.34
2018-09-27T13:15:03.935Z,100496.52
2018-09-27T13:17:33.661Z,100487.75
2018-09-27T13:20:03.115Z,100485.05
2018-09-27T13:22:32.276Z,100480.44
2018-09-27T13:25:01.645Z,100476.67
2018-09-27T13:27:30.725Z,100470.38
2018-09-27T13:29:59.938Z,100470.19
2018-09-27T13:32:29.191Z,100466.97
2018-09-27T13:34:58.290Z,100464.28
2018-09-27T13:37:27.365Z,100464.08
2018-09-27T13:39:56.856Z,100454.98
2018-09-27T13:42:26.483Z,100446.44
2018-09-27T13:44:56.094Z,100443.45
2018-09-27T13:47:25.411Z,100437.81
2018-09-27T13:49:54.567Z,100430.89
2018-09-27T13:52:24.034Z,100427.08
2018-09-27T13:54:52.996Z,100423.98
2018-09-27T13:57:22.402Z,100416.42
2018-09-27T13:59:51.782Z,100413.05
2018-09-27T14:02:20.880Z,100414.62
2018-09-27T14:04:51.063Z,100408.45
2018-09-27T14:07:20.406Z,100403.11
2018-09-27T14:09:49.645Z,100401.27
2018-09-27T14:12:18.654Z,100400.25
2018-09-27T14:14:48.248Z,100395.67
2018-09-27T14:17:20.587Z,100396.42
2018-09-27T14:19:49.736Z,100399.45
2018-09-27T14:22:18.836Z,100391.37
2018-09-27T14:24:48.315Z,100388.59
2018-09-27T14:27:17.520Z,100392.89
2018-09-27T14:29:47.099Z,100392.25
2018-09-27T14:32:16.289Z,100392.42
2018-09-27T14:34:46.078Z,100385.94
2018-09-27T14:37:15.145Z,100388.84
2018-09-27T14:39:44.343Z,100387.06
2018-09-27T14:42:13.464Z,100383.66
2018-09-27T14:44:42.623Z,100385.55
2018-09-27T14:47:12.175Z,100382.45
2018-09-27T14:49:41.399Z,100378.85
2018-09-27T14:52:10.967Z,100378.63
2018-09-27T14:54:40.343Z,100376.98
2018-09-27T14:57:09.785Z,100376.55
2018-09-27T14:59:39.373Z,100369.27
2018-09-27T15:02:09.165Z,100363.52
2018-09-27T15:04:38.379Z,100357.37
2018-09-27T15:07:07.593Z,100354.96
2018-09-27T15:09:36.707Z,100350.95
2018-09-27T15:12:05.878Z,100353.78
2018-09-27T15:14:34.946Z,100349.94
2018-09-27T15:17:04.223Z,100348.30
2018-09-27T15:19:33.509Z,100343.88
2018-09-27T15:22:02.726Z,100339.53
2018-09-27T15:24:31.789Z,100340.97
2018-09-27T15:27:01.102Z,100339.56
2018-09-27T15:29:30.236Z,100342.05
2018-09-27T15:31:59.304Z,100342.63
2018-09-27T15:34:28.614Z,100341.57
2018-09-27T15:36:57.812Z,100335.73
2018-09-27T15:39:27.065Z,100330.48
2018-09-27T15:41:56.183Z,100333.19
2018-09-27T15:44:25.183Z,100330.72
2018-09-27T15:46:54.715Z,100327.09
2018-09-27T15:49:23.802Z,100333.89
2018-09-27T15:51:52.797Z,100323.35
2018-09-27T15:54:21.928Z,100322.77
2018-09-27T15:56:51.108Z,100320.98
2018-09-27T15:59:20.153Z,100312.61
2018-09-27T16:01:49.332Z,100313.60
2018-09-27T16:04:18.435Z,100311.25
2018-09-27T16:06:47.592Z,100311.41
2018-09-27T16:09:16.686Z,100311.27
2018-09-27T16:11:45.959Z,100313.91
2018-09-27T16:14:15.334Z,100312.41
2018-09-27T16:16:44.478Z,100313.89
2018-09-27T16:19:13.615Z,100307.16
2018-09-27T16:21:42.907Z,100308.91
2018-09-27T16:24:12.211Z,100302.98
2018-09-27T16:26:42.220Z,100302.21
2018-09-27T16:29:11.549Z,100303.72
2018-09-27T16:31:40.504Z,100294.48
2018-09-27T16:34:09.917Z,100293.19
2018-09-27T16:36:38.895Z,100283.65
2018-09-27T16:39:09.455Z,100286.47
2018-09-27T16:41:39.287Z,100272.56
2018-09-27T16:44:08.666Z,100277.86
2018-09-27T16:46:38.100Z,100276.83
2018-09-27T16:49:07.406Z,100271.91
2018-09-27T16:51:36.725Z,100265.11
2018-09-27T16:54:06.053Z,100266.82
2018-09-27T16:56:35.188Z,100264.96
2018-09-27T16:59:04.401Z,100262.27
2018-09-27T17:01:33.407Z,100262.60
2018-09-27T17:04:02.665Z,100261.56
2018-09-27T17:06:32.012Z,100260.23
2018-09-27T17:09:01.165Z,100261.36
2018-09-27T17:11:30.409Z,100263.59
2018-09-27T17:13:59.837Z,100260.31
2018-09-27T17:16:28.961Z,100256.49
2018-09-27T17:18:58.285Z,100251.27
2018-09-27T17:21:27.578Z,100252.12
2018-09-27T17:23:56.906Z,100252.12
2018-09-27T17:26:25.991Z,100254.06
2018-09-27T17:28:55.160Z,100255.16
2018-09-27T17:31:24.474Z,100250.23
2018-09-27T17:33:53.837Z,100252.18
2018-09-27T17:36:23.086Z,100253.82
2018-09-27T17:38:52.171Z,100256.59
2018-09-27T17:41:21.231Z,100256.89
2018-09-27T17:43:50.404Z,100250.59
2018-09-27T17:46:20.529Z,100251.44
2018-09-27T17:48:49.757Z,100250.66
2018-09-27T17:51:18.992Z,100245.18
2018-09-27T17:53:48.507Z,100245.49
2018-09-27T17:56:17.744Z,100244.13
2018-09-27T17:58:47.253Z,100242.77
2018-09-27T18:01:16.843Z,100241.44
2018-09-27T18:03:46.660Z,100241.18
2018-09-27T18:06:15.788Z,100245.30
2018-09-27T18:08:44.918Z,100241.19
2018-09-27T18:11:14.999Z,100235.17
2018-09-27T18:13:45.033Z,100237.65
2018-09-27T18:16:14.581Z,100241.47
2018-09-27T18:18:44.014Z,100232.98
2018-09-27T18:21:13.547Z,100235.20
2018-09-27T18:23:42.797Z,100232.20
2018-09-27T18:26:11.769Z,100232.19
2018-09-27T18:28:40.796Z,100234.13
2018-09-27T18:31:10.344Z,100237.70
2018-09-27T18:33:40.005Z,100228.39
2018-09-27T18:36:09.235Z,100225.38
2018-09-27T18:38:38.537Z,100231.13
2018-09-27T18:41:07.988Z,100229.49
2018-09-27T18:43:37.295Z,100225.11
2018-09-27T18:46:06.535Z,100224.84
2018-09-27T18:48:35.753Z,100220.19
2018-09-27T18:51:06.111Z,100215.27
2018-09-27T18:53:35.436Z,100219.64
2018-09-27T18:56:04.552Z,100218.28
2018-09-27T18:58:34.019Z,100209.25
2018-09-27T19:01:03.244Z,100212.26
2018-09-27T19:03:32.278Z,100204.58
2018-09-27T19:06:01.586Z,100202.93
2018-09-27T19:08:31.082Z,100197.45
2018-09-27T19:11:00.167Z,100205.41
2018-09-27T19:13:29.295Z,100195.00
2018-09-27T19:15:58.312Z,100191.17
2018-09-27T19:18:27.554Z,100185.42
2018-09-27T19:20:56.869Z,100185.95
2018-09-27T19:23:25.966Z,100187.05
2018-09-27T19:25:55.180Z,100181.58
2018-09-27T19:28:24.563Z,100176.11
2018-09-27T19:30:53.674Z,100180.48
2018-09-27T19:33:22.740Z,100181.02
2018-09-27T19:35:52.114Z,100177.75
2018-09-27T19:38:21.248Z,100175.55
2018-09-27T19:40:50.679Z,100168.69
2018-09-27T19:43:19.712Z,100168.16
2018-09-27T19:45:49.061Z,100161.87
2018-09-27T19:48:18.045Z,100158.56
2018-09-27T19:50:47.342Z,100159.41
2018-09-27T19:53:16.460Z,100162.94
2018-09-27T19:55:45.456Z,100152.00
2018-09-27T19:58:14.602Z,100158.56
2018-09-27T20:00:43.928Z,100144.89
2018-09-27T20:03:13.292Z,100141.87
2018-09-27T20:05:42.270Z,100144.36
2018-09-27T20:08:11.527Z,100149.27
2018-09-27T20:10:41.486Z,100145.45
2018-09-27T20:13:10.736Z,100141.05
2018-09-27T20:15:40.374Z,100139.14
2018-09-27T20:18:09.681Z,100138.05
2018-09-27T20:20:38.816Z,100134.49
2018-09-27T20:23:08.212Z,100133.39
2018-09-27T20:25:37.814Z,100131.20
2018-09-27T20:28:07.250Z,100135.28
2018-09-27T20:30:36.792Z,100135.30
2018-09-27T20:33:06.740Z,100129.55
2018-09-27T20:35:36.244Z,100132.55
2018-09-27T20:38:06.538Z,100125.43
2018-09-27T20:40:35.699Z,100124.07
2018-09-27T20:43:05.120Z,100118.58
2018-09-27T20:45:34.623Z,100111.76
2018-09-27T20:48:03.956Z,100117.45
2018-09-27T20:50:33.404Z,100109.49
2018-09-27T20:53:02.763Z,100107.84
2018-09-27T20:55:31.955Z,100101.28
2018-09-27T20:58:01.257Z,100094.73
2018-09-27T21:00:30.378Z,100103.19
2018-09-27T21:02:59.641Z,100093.34
2018-09-27T21:05:29.262Z,100092.27
2018-09-27T21:07:58.437Z,100092.52
2018-09-27T21:10:27.539Z,100084.30
2018-09-27T21:12:56.877Z,100085.10
2018-09-27T21:15:25.983Z,100078.25
2018-09-27T21:17:55.140Z,100071.13
2018-09-27T21:20:24.186Z,100070.31
2018-09-27T21:22:53.434Z,100062.09
2018-09-27T21:25:23.570Z,100058.80
2018-09-27T21:27:53.070Z,100053.33
2018-09-27T21:30:22.195Z,100053.59
2018-09-27T21:32:51.558Z,100044.82
2018-09-27T21:35:20.771Z,100050.83
2018-09-27T21:37:50.735Z,100048.89
2018-09-27T21:40:19.797Z,100045.33
2018-09-27T21:42:49.204Z,100045.33
2018-09-27T21:45:18.473Z,100045.02
2018-09-27T21:47:47.768Z,100042.25
2018-09-27T21:50:17.301Z,100040.59
2018-09-27T21:52:47.053Z,100036.19
2018-09-27T21:55:16.138Z,100035.10
2018-09-27T21:57:45.710Z,100026.63
2018-09-27T22:00:15.114Z,100027.70
2018-09-27T22:02:44.279Z,100021.13
2018-09-27T22:05:13.287Z,100018.65
2018-09-27T22:07:42.509Z,100020.55
2018-09-27T22:10:11.572Z,100007.95
2018-09-27T22:12:40.596Z,100008.19
2018-09-27T22:15:09.685Z,100000.50
2018-09-27T22:17:38.851Z,100002.39
2018-09-27T22:20:08.445Z,99997.44
2018-09-27T22:22:37.617Z,100001.52
2018-09-27T22:25:06.615Z,100001.77
2018-09-27T22:27:35.912Z,100002.00
2018-09-27T22:30:05.525Z,100001.42
2018-09-27T22:32:34.644Z,99999.77
2018-09-27T22:35:03.864Z,99994.02
2018-09-27T22:37:33.087Z,99990.74
2018-09-27T22:40:02.359Z,99986.86
2018-09-27T22:42:31.465Z,99984.09
2018-09-27T22:45:00.871Z,99981.84
2018-09-27T22:47:29.980Z,99979.11
2018-09-27T22:49:59.255Z,99982.03
2018-09-27T22:52:28.310Z,99982.25
2018-09-27T22:54:57.257Z,99981.41
2018-09-27T22:57:26.476Z,99975.61
2018-09-27T22:59:55.856Z,99973.95
2018-09-27T23:02:25.055Z,99966.53
2018-09-27T23:04:54.082Z,99971.69
2018-09-27T23:07:23.226Z,99969.20
2018-09-27T23:09:52.618Z,99962.66
2018-09-27T23:12:21.615Z,99957.15
2018-09-27T23:14:50.637Z,99963.95
2018-09-27T23:17:19.719Z,99960.89
2018-09-27T23:19:48.843Z,99957.32
2018-09-27T23:22:18.555Z,99953.22
2018-09-27T23:24:47.889Z,99959.19
2018-09-27T23:27:17.116Z,99942.20
2018-09-27T23:29:46.380Z,99950.42
2018-09-27T23:32:15.879Z,99946.86
2018-09-27T23:34:45.391Z,99949.05
2018-09-27T23:37:14.825Z,99946.57
2018-09-27T23:39:44.676Z,99944.90
2018-09-27T23:42:13.746Z,99942.16
2018-09-27T23:44:42.783Z,99941.58
2018-09-27T23:47:12.020Z,99945.38
2018-09-27T23:49:41.316Z,99938.84
2018-09-27T23:52:10.655Z,99937.16
2018-09-27T23:54:39.994Z,99929.23
2018-09-27T23:57:09.169Z,99919.45
2018-09-27T23:59:38.642Z,99915.91
